Main page
METAR-TAF:

METAR-TAF

Airports :

Lechfeld Air Base

Lechfeld, Germany

latitude: 48-11N, longitude: 010-52E, elevation: 555 m

Current weather observation

The report was made 59 minutes ago, at 00:20 UTC
Wind 5 kt from the North/Northeast
Temperature 15°C
Humidity 82%
Pressure 1016 hPa
Visibility 10 km or more

METAR: ETSL 250020Z 03005KT 9999 15/12 Q1016 BLU+

Time: 03:19 (01:19 UTC)

Forecast

The report was made 12 hours and 0 minutes ago, at 13:19 UTC
Forecast valid from 24 at 14 UTC to 24 at 23 UTC
Wind 10 kt from the Northeast with gusts up to 20 kt
Visibility 10 km or more
Few clouds at a height of 4000 ft
Becoming
from 24 at 19 UTC to 24 at 21 UTC
Wind 6 kt from the Northeast
Visibility 10 km or more
Clear sky

TAF: ETSL 241319Z 2414/2423 05010G20KT 9999 NSW FEW040 BECMG 2419/2421 04006KT 9999 NSW SKC

Weather observations and forecasts of more than 4000 airports (METAR and TAF reports).

The available stations are represented by yellow and red dots on the map.

Hover mouse over dot to see the name of the station.

Then click to see weather observations and forecasts.

To change the map : click on the green buttons with a black cross to zoom in, on the green button with a dash to zoom out, or on the green arrows for adjacent maps.


METAR-TAF: